sensor_id;sensor_type;location;lat;lon;timestamp;P1;durP1;ratioP1;P2;durP2;ratioP2
21843;SDS011;11084;52.482;9.108;2022-11-13T00:01:38;15.33;;;7.47;;
21843;SDS011;11084;52.482;9.108;2022-11-13T00:04:22;11.00;;;6.67;;
21843;SDS011;11084;52.482;9.108;2022-11-13T00:07:07;14.00;;;6.77;;
21843;SDS011;11084;52.482;9.108;2022-11-13T00:09:52;11.60;;;6.90;;
21843;SDS011;11084;52.482;9.108;2022-11-13T00:12:37;13.93;;;7.03;;
21843;SDS011;11084;52.482;9.108;2022-11-13T00:15:21;11.30;;;6.90;;
21843;SDS011;11084;52.482;9.108;2022-11-13T00:18:06;17.47;;;7.20;;
21843;SDS011;11084;52.482;9.108;2022-11-13T00:20:51;10.73;;;6.57;;
21843;SDS011;11084;52.482;9.108;2022-11-13T00:23:35;14.80;;;7.40;;
21843;SDS011;11084;52.482;9.108;2022-11-13T00:26:21;11.73;;;6.97;;
21843;SDS011;11084;52.482;9.108;2022-11-13T00:29:11;12.87;;;7.33;;
21843;SDS011;11084;52.482;9.108;2022-11-13T00:31:55;11.77;;;6.70;;
21843;SDS011;11084;52.482;9.108;2022-11-13T00:34:40;10.80;;;6.40;;
21843;SDS011;11084;52.482;9.108;2022-11-13T00:37:25;9.83;;;6.93;;
21843;SDS011;11084;52.482;9.108;2022-11-13T00:40:10;15.90;;;7.17;;
21843;SDS011;11084;52.482;9.108;2022-11-13T00:42:54;12.97;;;7.80;;
21843;SDS011;11084;52.482;9.108;2022-11-13T00:45:39;11.63;;;6.97;;
21843;SDS011;11084;52.482;9.108;2022-11-13T00:48:24;18.37;;;7.30;;
21843;SDS011;11084;52.482;9.108;2022-11-13T00:51:09;14.20;;;7.30;;
21843;SDS011;11084;52.482;9.108;2022-11-13T00:53:53;12.33;;;6.77;;
21843;SDS011;11084;52.482;9.108;2022-11-13T00:56:38;11.97;;;6.63;;
21843;SDS011;11084;52.482;9.108;2022-11-13T00:59:22;15.93;;;7.00;;
21843;SDS011;11084;52.482;9.108;2022-11-13T01:02:07;12.03;;;6.37;;
21843;SDS011;11084;52.482;9.108;2022-11-13T01:04:53;13.60;;;6.97;;
21843;SDS011;11084;52.482;9.108;2022-11-13T01:07:37;13.30;;;6.80;;
21843;SDS011;11084;52.482;9.108;2022-11-13T01:10:22;16.10;;;7.83;;
21843;SDS011;11084;52.482;9.108;2022-11-13T01:13:06;14.27;;;7.00;;
21843;SDS011;11084;52.482;9.108;2022-11-13T01:15:52;10.07;;;6.27;;
21843;SDS011;11084;52.482;9.108;2022-11-13T01:18:36;13.07;;;6.97;;
21843;SDS011;11084;52.482;9.108;2022-11-13T01:21:23;12.13;;;6.73;;
21843;SDS011;11084;52.482;9.108;2022-11-13T01:24:09;12.47;;;6.03;;
21843;SDS011;11084;52.482;9.108;2022-11-13T01:26:54;19.73;;;7.27;;
21843;SDS011;11084;52.482;9.108;2022-11-13T01:29:39;10.80;;;6.60;;
21843;SDS011;11084;52.482;9.108;2022-11-13T01:32:23;12.10;;;6.47;;
21843;SDS011;11084;52.482;9.108;2022-11-13T01:35:08;18.10;;;7.20;;
21843;SDS011;11084;52.482;9.108;2022-11-13T01:37:52;14.17;;;7.03;;
21843;SDS011;11084;52.482;9.108;2022-11-13T01:40:43;14.60;;;7.03;;
21843;SDS011;11084;52.482;9.108;2022-11-13T01:43:34;13.47;;;7.43;;
21843;SDS011;11084;52.482;9.108;2022-11-13T01:46:22;15.03;;;7.10;;
21843;SDS011;11084;52.482;9.108;2022-11-13T01:52:34;14.80;;;7.23;;
21843;SDS011;11084;52.482;9.108;2022-11-13T01:55:23;11.37;;;6.70;;
21843;SDS011;11084;52.482;9.108;2022-11-13T01:58:08;13.73;;;6.63;;
21843;SDS011;11084;52.482;9.108;2022-11-13T02:00:54;12.07;;;6.33;;
21843;SDS011;11084;52.482;9.108;2022-11-13T02:03:39;13.70;;;6.97;;
21843;SDS011;11084;52.482;9.108;2022-11-13T02:06:24;13.07;;;6.30;;
21843;SDS011;11084;52.482;9.108;2022-11-13T02:09:17;16.03;;;6.70;;
21843;SDS011;11084;52.482;9.108;2022-11-13T02:12:11;11.60;;;6.87;;
21843;SDS011;11084;52.482;9.108;2022-11-13T02:14:59;11.93;;;7.30;;
21843;SDS011;11084;52.482;9.108;2022-11-13T02:17:51;11.57;;;7.07;;
21843;SDS011;11084;52.482;9.108;2022-11-13T02:26:55;11.10;;;6.30;;
21843;SDS011;11084;52.482;9.108;2022-11-13T02:29:46;13.80;;;6.13;;
21843;SDS011;11084;52.482;9.108;2022-11-13T02:32:31;12.27;;;5.63;;
21843;SDS011;11084;52.482;9.108;2022-11-13T02:35:20;14.30;;;5.07;;
21843;SDS011;11084;52.482;9.108;2022-11-13T02:38:11;9.20;;;5.37;;
21843;SDS011;11084;52.482;9.108;2022-11-13T02:40:56;12.10;;;5.03;;
21843;SDS011;11084;52.482;9.108;2022-11-13T02:43:40;13.63;;;5.03;;
21843;SDS011;11084;52.482;9.108;2022-11-13T02:46:25;7.47;;;5.17;;
21843;SDS011;11084;52.482;9.108;2022-11-13T02:49:10;10.63;;;5.40;;
21843;SDS011;11084;52.482;9.108;2022-11-13T02:51:54;13.23;;;5.90;;
21843;SDS011;11084;52.482;9.108;2022-11-13T02:54:39;10.30;;;5.53;;
21843;SDS011;11084;52.482;9.108;2022-11-13T02:57:25;6.73;;;4.87;;
21843;SDS011;11084;52.482;9.108;2022-11-13T03:00:09;6.27;;;4.43;;
21843;SDS011;11084;52.482;9.108;2022-11-13T03:02:55;7.27;;;4.00;;
21843;SDS011;11084;52.482;9.108;2022-11-13T03:05:40;11.40;;;4.60;;
21843;SDS011;11084;52.482;9.108;2022-11-13T03:08:25;7.10;;;4.63;;
21843;SDS011;11084;52.482;9.108;2022-11-13T03:11:10;6.80;;;4.93;;
21843;SDS011;11084;52.482;9.108;2022-11-13T03:13:55;9.27;;;5.40;;
21843;SDS011;11084;52.482;9.108;2022-11-13T03:16:40;6.53;;;4.70;;
21843;SDS011;11084;52.482;9.108;2022-11-13T03:19:25;9.97;;;5.63;;
21843;SDS011;11084;52.482;9.108;2022-11-13T03:22:09;7.60;;;4.93;;
21843;SDS011;11084;52.482;9.108;2022-11-13T03:24:54;13.13;;;5.83;;
21843;SDS011;11084;52.482;9.108;2022-11-13T03:27:39;11.03;;;5.60;;
21843;SDS011;11084;52.482;9.108;2022-11-13T03:30:23;10.83;;;5.73;;
21843;SDS011;11084;52.482;9.108;2022-11-13T03:33:08;8.67;;;4.53;;
21843;SDS011;11084;52.482;9.108;2022-11-13T03:35:53;7.87;;;4.47;;
21843;SDS011;11084;52.482;9.108;2022-11-13T03:38:38;7.50;;;4.57;;
21843;SDS011;11084;52.482;9.108;2022-11-13T03:41:23;10.57;;;4.77;;
21843;SDS011;11084;52.482;9.108;2022-11-13T03:44:08;10.63;;;4.63;;
21843;SDS011;11084;52.482;9.108;2022-11-13T03:46:52;6.73;;;3.87;;
21843;SDS011;11084;52.482;9.108;2022-11-13T03:49:37;7.97;;;4.70;;
21843;SDS011;11084;52.482;9.108;2022-11-13T03:52:21;6.87;;;4.10;;
21843;SDS011;11084;52.482;9.108;2022-11-13T03:55:06;6.63;;;4.00;;
21843;SDS011;11084;52.482;9.108;2022-11-13T03:57:51;6.70;;;4.30;;
21843;SDS011;11084;52.482;9.108;2022-11-13T04:00:37;9.80;;;3.87;;
21843;SDS011;11084;52.482;9.108;2022-11-13T04:03:23;11.50;;;4.60;;
21843;SDS011;11084;52.482;9.108;2022-11-13T04:06:09;12.50;;;5.97;;
21843;SDS011;11084;52.482;9.108;2022-11-13T04:08:53;12.30;;;6.10;;
21843;SDS011;11084;52.482;9.108;2022-11-13T04:11:38;11.10;;;5.57;;
21843;SDS011;11084;52.482;9.108;2022-11-13T04:14:22;10.47;;;5.67;;
21843;SDS011;11084;52.482;9.108;2022-11-13T04:17:08;16.20;;;6.37;;
21843;SDS011;11084;52.482;9.108;2022-11-13T04:19:53;20.20;;;6.80;;
21843;SDS011;11084;52.482;9.108;2022-11-13T04:22:37;16.87;;;7.90;;
21843;SDS011;11084;52.482;9.108;2022-11-13T04:25:22;17.97;;;7.40;;
21843;SDS011;11084;52.482;9.108;2022-11-13T04:28:09;13.43;;;6.87;;
21843;SDS011;11084;52.482;9.108;2022-11-13T04:30:54;21.17;;;9.13;;
21843;SDS011;11084;52.482;9.108;2022-11-13T04:33:39;17.43;;;7.27;;
21843;SDS011;11084;52.482;9.108;2022-11-13T04:36:24;15.57;;;6.93;;
21843;SDS011;11084;52.482;9.108;2022-11-13T04:39:08;21.03;;;8.60;;
21843;SDS011;11084;52.482;9.108;2022-11-13T04:41:53;18.20;;;8.03;;
21843;SDS011;11084;52.482;9.108;2022-11-13T04:44:56;20.93;;;7.93;;
21843;SDS011;11084;52.482;9.108;2022-11-13T04:47:41;19.87;;;9.20;;
21843;SDS011;11084;52.482;9.108;2022-11-13T04:50:26;32.50;;;9.33;;
21843;SDS011;11084;52.482;9.108;2022-11-13T04:53:10;24.90;;;8.70;;
21843;SDS011;11084;52.482;9.108;2022-11-13T04:55:55;10.97;;;6.03;;
21843;SDS011;11084;52.482;9.108;2022-11-13T04:58:41;12.67;;;5.97;;
21843;SDS011;11084;52.482;9.108;2022-11-13T05:01:26;14.73;;;6.07;;
21843;SDS011;11084;52.482;9.108;2022-11-13T05:04:11;18.77;;;7.93;;
21843;SDS011;11084;52.482;9.108;2022-11-13T05:06:59;21.37;;;8.33;;
21843;SDS011;11084;52.482;9.108;2022-11-13T05:09:43;22.90;;;9.17;;
21843;SDS011;11084;52.482;9.108;2022-11-13T05:12:28;24.17;;;9.50;;
21843;SDS011;11084;52.482;9.108;2022-11-13T05:15:12;21.93;;;8.60;;
21843;SDS011;11084;52.482;9.108;2022-11-13T05:17:58;21.77;;;9.03;;
21843;SDS011;11084;52.482;9.108;2022-11-13T05:20:43;20.83;;;8.73;;
21843;SDS011;11084;52.482;9.108;2022-11-13T05:23:27;19.57;;;7.90;;
21843;SDS011;11084;52.482;9.108;2022-11-13T05:26:12;25.83;;;9.83;;
21843;SDS011;11084;52.482;9.108;2022-11-13T05:28:58;25.67;;;9.57;;
21843;SDS011;11084;52.482;9.108;2022-11-13T05:31:43;23.00;;;9.30;;
21843;SDS011;11084;52.482;9.108;2022-11-13T05:34:28;23.17;;;9.47;;
21843;SDS011;11084;52.482;9.108;2022-11-13T05:37:12;22.17;;;8.77;;
21843;SDS011;11084;52.482;9.108;2022-11-13T05:39:57;21.33;;;9.73;;
21843;SDS011;11084;52.482;9.108;2022-11-13T05:42:42;21.27;;;9.10;;
21843;SDS011;11084;52.482;9.108;2022-11-13T05:45:27;20.77;;;9.20;;
21843;SDS011;11084;52.482;9.108;2022-11-13T05:48:12;21.60;;;9.37;;
21843;SDS011;11084;52.482;9.108;2022-11-13T05:51:02;22.13;;;9.20;;
21843;SDS011;11084;52.482;9.108;2022-11-13T05:53:53;24.37;;;10.43;;
21843;SDS011;11084;52.482;9.108;2022-11-13T05:56:38;16.67;;;8.07;;
21843;SDS011;11084;52.482;9.108;2022-11-13T05:59:23;21.07;;;8.43;;
21843;SDS011;11084;52.482;9.108;2022-11-13T06:02:08;23.33;;;10.13;;
21843;SDS011;11084;52.482;9.108;2022-11-13T06:04:53;19.40;;;8.73;;
21843;SDS011;11084;52.482;9.108;2022-11-13T06:07:38;24.10;;;8.60;;
21843;SDS011;11084;52.482;9.108;2022-11-13T06:10:22;22.80;;;8.03;;
21843;SDS011;11084;52.482;9.108;2022-11-13T06:13:07;16.17;;;8.10;;
21843;SDS011;11084;52.482;9.108;2022-11-13T06:15:52;17.27;;;8.20;;
21843;SDS011;11084;52.482;9.108;2022-11-13T06:18:37;17.43;;;8.40;;
21843;SDS011;11084;52.482;9.108;2022-11-13T06:21:24;15.40;;;7.17;;
21843;SDS011;11084;52.482;9.108;2022-11-13T06:24:12;20.00;;;8.80;;
21843;SDS011;11084;52.482;9.108;2022-11-13T06:26:56;16.90;;;7.97;;
21843;SDS011;11084;52.482;9.108;2022-11-13T06:29:41;21.83;;;8.03;;
21843;SDS011;11084;52.482;9.108;2022-11-13T06:32:26;13.90;;;7.50;;
21843;SDS011;11084;52.482;9.108;2022-11-13T06:35:10;15.83;;;7.40;;
21843;SDS011;11084;52.482;9.108;2022-11-13T06:37:55;17.40;;;8.23;;
21843;SDS011;11084;52.482;9.108;2022-11-13T06:40:39;21.13;;;8.13;;
21843;SDS011;11084;52.482;9.108;2022-11-13T06:43:25;15.17;;;7.63;;
21843;SDS011;11084;52.482;9.108;2022-11-13T06:46:13;15.40;;;7.83;;
21843;SDS011;11084;52.482;9.108;2022-11-13T06:49:00;17.50;;;7.33;;
21843;SDS011;11084;52.482;9.108;2022-11-13T06:51:45;16.43;;;7.60;;
21843;SDS011;11084;52.482;9.108;2022-11-13T06:54:29;17.90;;;7.70;;
21843;SDS011;11084;52.482;9.108;2022-11-13T06:57:14;21.60;;;8.63;;
21843;SDS011;11084;52.482;9.108;2022-11-13T06:59:58;16.47;;;8.37;;
21843;SDS011;11084;52.482;9.108;2022-11-13T07:02:43;12.17;;;7.40;;
21843;SDS011;11084;52.482;9.108;2022-11-13T07:05:28;18.83;;;8.27;;
21843;SDS011;11084;52.482;9.108;2022-11-13T07:08:12;15.37;;;8.87;;
21843;SDS011;11084;52.482;9.108;2022-11-13T07:10:58;17.40;;;9.53;;
21843;SDS011;11084;52.482;9.108;2022-11-13T07:13:43;20.87;;;10.93;;
21843;SDS011;11084;52.482;9.108;2022-11-13T07:16:27;19.03;;;10.77;;
21843;SDS011;11084;52.482;9.108;2022-11-13T07:19:12;19.27;;;10.43;;
21843;SDS011;11084;52.482;9.108;2022-11-13T07:21:57;14.73;;;8.80;;
21843;SDS011;11084;52.482;9.108;2022-11-13T07:24:41;13.43;;;8.10;;
21843;SDS011;11084;52.482;9.108;2022-11-13T07:27:26;12.37;;;6.87;;
21843;SDS011;11084;52.482;9.108;2022-11-13T07:30:11;14.27;;;7.80;;
21843;SDS011;11084;52.482;9.108;2022-11-13T07:33:00;14.83;;;6.60;;
21843;SDS011;11084;52.482;9.108;2022-11-13T07:35:46;11.87;;;7.00;;
21843;SDS011;11084;52.482;9.108;2022-11-13T07:38:30;12.00;;;7.80;;
21843;SDS011;11084;52.482;9.108;2022-11-13T07:41:15;17.10;;;7.00;;
21843;SDS011;11084;52.482;9.108;2022-11-13T07:44:00;11.03;;;6.93;;
21843;SDS011;11084;52.482;9.108;2022-11-13T07:46:44;16.40;;;7.10;;
21843;SDS011;11084;52.482;9.108;2022-11-13T07:49:29;9.80;;;6.40;;
21843;SDS011;11084;52.482;9.108;2022-11-13T07:52:13;14.27;;;7.23;;
21843;SDS011;11084;52.482;9.108;2022-11-13T07:54:58;11.57;;;7.33;;
21843;SDS011;11084;52.482;9.108;2022-11-13T07:57:43;10.23;;;6.80;;
21843;SDS011;11084;52.482;9.108;2022-11-13T08:00:28;13.33;;;7.03;;
21843;SDS011;11084;52.482;9.108;2022-11-13T08:03:15;13.60;;;6.93;;
21843;SDS011;11084;52.482;9.108;2022-11-13T08:06:01;12.87;;;6.77;;
21843;SDS011;11084;52.482;9.108;2022-11-13T08:08:48;10.40;;;6.67;;
21843;SDS011;11084;52.482;9.108;2022-11-13T08:11:33;11.87;;;6.53;;
21843;SDS011;11084;52.482;9.108;2022-11-13T08:14:18;10.40;;;6.90;;
21843;SDS011;11084;52.482;9.108;2022-11-13T08:17:02;10.47;;;6.93;;
21843;SDS011;11084;52.482;9.108;2022-11-13T08:19:47;12.40;;;6.97;;
21843;SDS011;11084;52.482;9.108;2022-11-13T08:22:32;16.20;;;6.10;;
21843;SDS011;11084;52.482;9.108;2022-11-13T08:25:17;10.53;;;6.47;;
21843;SDS011;11084;52.482;9.108;2022-11-13T08:28:02;10.73;;;6.00;;
21843;SDS011;11084;52.482;9.108;2022-11-13T08:30:46;10.03;;;6.70;;
21843;SDS011;11084;52.482;9.108;2022-11-13T08:33:31;12.13;;;6.77;;
21843;SDS011;11084;52.482;9.108;2022-11-13T08:36:16;14.37;;;7.37;;
21843;SDS011;11084;52.482;9.108;2022-11-13T08:39:00;13.53;;;6.80;;
21843;SDS011;11084;52.482;9.108;2022-11-13T08:41:45;17.70;;;6.80;;
21843;SDS011;11084;52.482;9.108;2022-11-13T08:44:30;10.10;;;6.40;;
21843;SDS011;11084;52.482;9.108;2022-11-13T08:47:14;17.27;;;6.83;;
21843;SDS011;11084;52.482;9.108;2022-11-13T08:49:59;13.23;;;6.77;;
21843;SDS011;11084;52.482;9.108;2022-11-13T08:52:43;10.70;;;6.20;;
21843;SDS011;11084;52.482;9.108;2022-11-13T08:55:28;13.00;;;7.03;;
21843;SDS011;11084;52.482;9.108;2022-11-13T08:58:13;12.17;;;6.60;;
21843;SDS011;11084;52.482;9.108;2022-11-13T09:01:01;13.30;;;6.43;;
21843;SDS011;11084;52.482;9.108;2022-11-13T09:03:47;12.93;;;7.23;;
21843;SDS011;11084;52.482;9.108;2022-11-13T09:06:32;9.17;;;6.20;;
21843;SDS011;11084;52.482;9.108;2022-11-13T09:09:17;11.37;;;6.33;;
21843;SDS011;11084;52.482;9.108;2022-11-13T09:12:03;10.10;;;6.17;;
21843;SDS011;11084;52.482;9.108;2022-11-13T09:14:48;10.83;;;6.20;;
21843;SDS011;11084;52.482;9.108;2022-11-13T09:17:32;17.23;;;6.10;;
21843;SDS011;11084;52.482;9.108;2022-11-13T09:20:17;11.03;;;6.23;;
21843;SDS011;11084;52.482;9.108;2022-11-13T09:23:03;12.13;;;6.23;;
21843;SDS011;11084;52.482;9.108;2022-11-13T09:25:49;14.63;;;6.13;;
21843;SDS011;11084;52.482;9.108;2022-11-13T09:28:34;10.03;;;6.00;;
21843;SDS011;11084;52.482;9.108;2022-11-13T09:31:19;11.60;;;5.87;;
21843;SDS011;11084;52.482;9.108;2022-11-13T09:34:03;10.47;;;5.50;;
21843;SDS011;11084;52.482;9.108;2022-11-13T09:36:48;9.53;;;5.33;;
21843;SDS011;11084;52.482;9.108;2022-11-13T09:39:33;9.83;;;5.90;;
21843;SDS011;11084;52.482;9.108;2022-11-13T09:42:18;10.87;;;6.07;;
21843;SDS011;11084;52.482;9.108;2022-11-13T09:45:09;14.03;;;5.93;;
21843;SDS011;11084;52.482;9.108;2022-11-13T09:51:02;13.50;;;6.50;;
21843;SDS011;11084;52.482;9.108;2022-11-13T09:53:56;9.57;;;5.80;;
21843;SDS011;11084;52.482;9.108;2022-11-13T09:56:42;9.67;;;5.87;;
21843;SDS011;11084;52.482;9.108;2022-11-13T10:03:09;10.83;;;6.47;;
21843;SDS011;11084;52.482;9.108;2022-11-13T10:12:15;11.67;;;6.77;;
21843;SDS011;11084;52.482;9.108;2022-11-13T10:15:01;12.77;;;7.67;;
21843;SDS011;11084;52.482;9.108;2022-11-13T10:17:56;16.43;;;6.63;;
21843;SDS011;11084;52.482;9.108;2022-11-13T10:20:51;11.70;;;6.43;;
21843;SDS011;11084;52.482;9.108;2022-11-13T10:23:40;15.77;;;7.30;;
21843;SDS011;11084;52.482;9.108;2022-11-13T10:26:32;10.10;;;6.87;;
21843;SDS011;11084;52.482;9.108;2022-11-13T10:29:18;15.23;;;7.07;;
21843;SDS011;11084;52.482;9.108;2022-11-13T10:35:36;13.47;;;7.03;;
21843;SDS011;11084;52.482;9.108;2022-11-13T10:38:31;15.23;;;7.57;;
21843;SDS011;11084;52.482;9.108;2022-11-13T10:41:17;15.77;;;7.47;;
21843;SDS011;11084;52.482;9.108;2022-11-13T10:44:04;18.67;;;7.87;;
21843;SDS011;11084;52.482;9.108;2022-11-13T10:47:04;13.03;;;7.07;;
21843;SDS011;11084;52.482;9.108;2022-11-13T10:50:08;16.37;;;6.57;;
21843;SDS011;11084;52.482;9.108;2022-11-13T10:52:57;12.43;;;6.83;;
21843;SDS011;11084;52.482;9.108;2022-11-13T10:55:42;16.90;;;7.60;;
21843;SDS011;11084;52.482;9.108;2022-11-13T10:58:28;12.70;;;6.87;;
21843;SDS011;11084;52.482;9.108;2022-11-13T11:01:14;13.77;;;7.67;;
21843;SDS011;11084;52.482;9.108;2022-11-13T11:04:06;17.13;;;7.67;;
21843;SDS011;11084;52.482;9.108;2022-11-13T11:07:20;15.23;;;8.53;;
21843;SDS011;11084;52.482;9.108;2022-11-13T11:10:18;12.23;;;7.40;;
21843;SDS011;11084;52.482;9.108;2022-11-13T11:13:20;23.80;;;9.43;;
21843;SDS011;11084;52.482;9.108;2022-11-13T11:16:06;17.87;;;8.93;;
21843;SDS011;11084;52.482;9.108;2022-11-13T11:19:00;15.73;;;8.27;;
21843;SDS011;11084;52.482;9.108;2022-11-13T11:21:49;15.80;;;8.20;;
21843;SDS011;11084;52.482;9.108;2022-11-13T11:24:38;16.20;;;8.60;;
21843;SDS011;11084;52.482;9.108;2022-11-13T11:27:49;18.57;;;8.23;;
21843;SDS011;11084;52.482;9.108;2022-11-13T11:30:46;17.83;;;8.67;;
21843;SDS011;11084;52.482;9.108;2022-11-13T11:33:41;21.03;;;8.67;;
21843;SDS011;11084;52.482;9.108;2022-11-13T11:37:00;16.40;;;8.70;;
21843;SDS011;11084;52.482;9.108;2022-11-13T11:40:07;16.23;;;8.90;;
21843;SDS011;11084;52.482;9.108;2022-11-13T11:46:03;16.17;;;8.47;;
21843;SDS011;11084;52.482;9.108;2022-11-13T11:48:48;19.10;;;7.83;;
21843;SDS011;11084;52.482;9.108;2022-11-13T11:51:35;14.63;;;8.73;;
21843;SDS011;11084;52.482;9.108;2022-11-13T12:11:06;16.63;;;8.43;;
21843;SDS011;11084;52.482;9.108;2022-11-13T12:20:29;17.27;;;7.87;;
21843;SDS011;11084;52.482;9.108;2022-11-13T12:27:23;17.03;;;8.57;;
21843;SDS011;11084;52.482;9.108;2022-11-13T12:30:18;20.43;;;9.20;;
21843;SDS011;11084;52.482;9.108;2022-11-13T12:33:10;14.93;;;8.43;;
21843;SDS011;11084;52.482;9.108;2022-11-13T12:36:07;16.83;;;8.20;;
21843;SDS011;11084;52.482;9.108;2022-11-13T12:39:39;13.77;;;8.33;;
21843;SDS011;11084;52.482;9.108;2022-11-13T12:42:28;15.73;;;8.33;;
21843;SDS011;11084;52.482;9.108;2022-11-13T12:48:21;15.77;;;8.73;;
21843;SDS011;11084;52.482;9.108;2022-11-13T12:51:12;14.30;;;7.90;;
21843;SDS011;11084;52.482;9.108;2022-11-13T12:54:00;20.57;;;8.97;;
21843;SDS011;11084;52.482;9.108;2022-11-13T12:56:45;11.43;;;7.07;;
21843;SDS011;11084;52.482;9.108;2022-11-13T12:59:33;15.90;;;7.93;;
21843;SDS011;11084;52.482;9.108;2022-11-13T13:02:54;15.83;;;8.10;;
21843;SDS011;11084;52.482;9.108;2022-11-13T13:06:01;15.13;;;8.70;;
21843;SDS011;11084;52.482;9.108;2022-11-13T13:15:39;18.50;;;9.40;;
21843;SDS011;11084;52.482;9.108;2022-11-13T13:18:40;18.93;;;9.70;;
21843;SDS011;11084;52.482;9.108;2022-11-13T13:21:25;20.00;;;9.30;;
21843;SDS011;11084;52.482;9.108;2022-11-13T13:24:29;22.13;;;10.30;;
21843;SDS011;11084;52.482;9.108;2022-11-13T13:27:21;20.60;;;9.87;;
21843;SDS011;11084;52.482;9.108;2022-11-13T13:30:16;24.43;;;10.57;;
21843;SDS011;11084;52.482;9.108;2022-11-13T13:36:29;18.87;;;9.33;;
21843;SDS011;11084;52.482;9.108;2022-11-13T13:46:17;21.30;;;10.80;;
21843;SDS011;11084;52.482;9.108;2022-11-13T13:49:05;20.73;;;10.70;;
21843;SDS011;11084;52.482;9.108;2022-11-13T13:51:57;21.60;;;10.87;;
21843;SDS011;11084;52.482;9.108;2022-11-13T13:54:42;24.33;;;11.97;;
21843;SDS011;11084;52.482;9.108;2022-11-13T13:57:28;25.20;;;11.50;;
21843;SDS011;11084;52.482;9.108;2022-11-13T14:00:13;22.77;;;11.43;;
21843;SDS011;11084;52.482;9.108;2022-11-13T14:03:01;25.50;;;11.20;;
21843;SDS011;11084;52.482;9.108;2022-11-13T14:05:46;23.67;;;10.73;;
21843;SDS011;11084;52.482;9.108;2022-11-13T14:08:30;22.33;;;11.17;;
21843;SDS011;11084;52.482;9.108;2022-11-13T14:11:17;28.47;;;12.13;;
21843;SDS011;11084;52.482;9.108;2022-11-13T14:14:21;24.87;;;11.63;;
21843;SDS011;11084;52.482;9.108;2022-11-13T14:17:08;31.37;;;11.93;;
21843;SDS011;11084;52.482;9.108;2022-11-13T14:19:54;26.53;;;12.87;;
21843;SDS011;11084;52.482;9.108;2022-11-13T14:22:43;24.50;;;12.40;;
21843;SDS011;11084;52.482;9.108;2022-11-13T14:25:31;28.60;;;11.87;;
21843;SDS011;11084;52.482;9.108;2022-11-13T14:28:17;26.40;;;11.90;;
21843;SDS011;11084;52.482;9.108;2022-11-13T14:31:05;24.10;;;11.67;;
21843;SDS011;11084;52.482;9.108;2022-11-13T14:33:52;30.30;;;12.93;;
21843;SDS011;11084;52.482;9.108;2022-11-13T14:36:39;27.67;;;12.07;;
21843;SDS011;11084;52.482;9.108;2022-11-13T14:39:25;29.03;;;13.17;;
21843;SDS011;11084;52.482;9.108;2022-11-13T14:42:33;26.37;;;12.27;;
21843;SDS011;11084;52.482;9.108;2022-11-13T14:45:22;25.83;;;12.07;;
21843;SDS011;11084;52.482;9.108;2022-11-13T14:48:17;22.93;;;11.73;;
21843;SDS011;11084;52.482;9.108;2022-11-13T14:51:05;28.60;;;13.53;;
21843;SDS011;11084;52.482;9.108;2022-11-13T14:54:06;32.83;;;12.17;;
21843;SDS011;11084;52.482;9.108;2022-11-13T14:57:12;33.70;;;12.17;;
21843;SDS011;11084;52.482;9.108;2022-11-13T15:00:24;23.33;;;10.37;;
21843;SDS011;11084;52.482;9.108;2022-11-13T15:03:12;28.07;;;12.37;;
21843;SDS011;11084;52.482;9.108;2022-11-13T15:06:00;28.90;;;13.13;;
21843;SDS011;11084;52.482;9.108;2022-11-13T15:08:46;33.27;;;13.27;;
21843;SDS011;11084;52.482;9.108;2022-11-13T15:11:32;28.10;;;12.57;;
21843;SDS011;11084;52.482;9.108;2022-11-13T15:14:18;27.37;;;11.53;;
21843;SDS011;11084;52.482;9.108;2022-11-13T15:17:04;25.37;;;12.57;;
21843;SDS011;11084;52.482;9.108;2022-11-13T15:19:52;27.37;;;13.23;;
21843;SDS011;11084;52.482;9.108;2022-11-13T15:22:37;27.60;;;10.97;;
21843;SDS011;11084;52.482;9.108;2022-11-13T15:25:23;40.73;;;12.60;;
21843;SDS011;11084;52.482;9.108;2022-11-13T15:28:10;27.70;;;12.40;;
21843;SDS011;11084;52.482;9.108;2022-11-13T15:30:54;26.87;;;11.60;;
21843;SDS011;11084;52.482;9.108;2022-11-13T15:33:39;29.53;;;12.80;;
21843;SDS011;11084;52.482;9.108;2022-11-13T15:36:24;28.03;;;12.57;;
21843;SDS011;11084;52.482;9.108;2022-11-13T15:39:08;23.53;;;10.83;;
21843;SDS011;11084;52.482;9.108;2022-11-13T15:41:53;28.50;;;12.80;;
21843;SDS011;11084;52.482;9.108;2022-11-13T15:44:38;29.23;;;13.13;;
21843;SDS011;11084;52.482;9.108;2022-11-13T15:50:16;29.47;;;12.00;;
21843;SDS011;11084;52.482;9.108;2022-11-13T15:53:00;25.17;;;11.20;;
21843;SDS011;11084;52.482;9.108;2022-11-13T15:55:48;32.93;;;11.87;;
21843;SDS011;11084;52.482;9.108;2022-11-13T15:58:33;35.27;;;13.40;;
21843;SDS011;11084;52.482;9.108;2022-11-13T16:01:18;33.67;;;13.13;;
21843;SDS011;11084;52.482;9.108;2022-11-13T16:04:04;29.33;;;12.83;;
21843;SDS011;11084;52.482;9.108;2022-11-13T16:06:50;28.37;;;11.87;;
21843;SDS011;11084;52.482;9.108;2022-11-13T16:09:34;31.97;;;13.10;;
21843;SDS011;11084;52.482;9.108;2022-11-13T16:12:21;29.43;;;11.33;;
21843;SDS011;11084;52.482;9.108;2022-11-13T16:15:06;30.77;;;11.63;;
21843;SDS011;11084;52.482;9.108;2022-11-13T16:17:53;28.83;;;11.90;;
21843;SDS011;11084;52.482;9.108;2022-11-13T16:20:40;23.77;;;10.97;;
21843;SDS011;11084;52.482;9.108;2022-11-13T16:23:25;28.00;;;12.27;;
21843;SDS011;11084;52.482;9.108;2022-11-13T16:26:12;31.60;;;11.83;;
21843;SDS011;11084;52.482;9.108;2022-11-13T16:29:26;32.80;;;12.60;;
21843;SDS011;11084;52.482;9.108;2022-11-13T16:32:14;28.10;;;12.33;;
21843;SDS011;11084;52.482;9.108;2022-11-13T16:34:59;36.17;;;13.23;;
21843;SDS011;11084;52.482;9.108;2022-11-13T16:37:44;35.13;;;13.47;;
21843;SDS011;11084;52.482;9.108;2022-11-13T16:40:29;28.10;;;12.17;;
21843;SDS011;11084;52.482;9.108;2022-11-13T16:43:14;26.60;;;11.30;;
21843;SDS011;11084;52.482;9.108;2022-11-13T16:45:59;29.90;;;12.77;;
21843;SDS011;11084;52.482;9.108;2022-11-13T16:48:45;31.43;;;13.80;;
21843;SDS011;11084;52.482;9.108;2022-11-13T16:51:32;28.23;;;11.47;;
21843;SDS011;11084;52.482;9.108;2022-11-13T16:54:16;30.47;;;10.97;;
21843;SDS011;11084;52.482;9.108;2022-11-13T16:57:01;35.13;;;13.23;;
21843;SDS011;11084;52.482;9.108;2022-11-13T16:59:45;32.23;;;13.03;;
21843;SDS011;11084;52.482;9.108;2022-11-13T17:02:30;33.57;;;14.43;;
21843;SDS011;11084;52.482;9.108;2022-11-13T17:05:15;31.00;;;13.97;;
21843;SDS011;11084;52.482;9.108;2022-11-13T17:08:00;33.87;;;11.90;;
21843;SDS011;11084;52.482;9.108;2022-11-13T17:10:45;31.27;;;12.80;;
21843;SDS011;11084;52.482;9.108;2022-11-13T17:13:29;36.63;;;14.07;;
21843;SDS011;11084;52.482;9.108;2022-11-13T17:16:14;30.53;;;12.97;;
21843;SDS011;11084;52.482;9.108;2022-11-13T17:18:59;32.93;;;12.83;;
21843;SDS011;11084;52.482;9.108;2022-11-13T17:21:44;27.70;;;12.40;;
21843;SDS011;11084;52.482;9.108;2022-11-13T17:24:29;26.77;;;11.57;;
21843;SDS011;11084;52.482;9.108;2022-11-13T17:27:13;30.93;;;12.37;;
21843;SDS011;11084;52.482;9.108;2022-11-13T17:29:58;27.47;;;12.03;;
21843;SDS011;11084;52.482;9.108;2022-11-13T17:32:43;27.47;;;12.67;;
21843;SDS011;11084;52.482;9.108;2022-11-13T17:35:28;25.73;;;12.00;;
21843;SDS011;11084;52.482;9.108;2022-11-13T17:38:12;34.73;;;13.37;;
21843;SDS011;11084;52.482;9.108;2022-11-13T17:41:02;34.67;;;14.00;;
21843;SDS011;11084;52.482;9.108;2022-11-13T17:43:54;36.37;;;14.83;;
21843;SDS011;11084;52.482;9.108;2022-11-13T17:46:39;35.63;;;14.93;;
21843;SDS011;11084;52.482;9.108;2022-11-13T17:49:24;43.50;;;15.63;;